Lake Orion, MI (48362)

8:12 PM EST on February 05, 2016 (GMT -0500)
Hills of Oxford Condos (North M24 Oxford/Lake Orion) | | Change Station
CLOSE
Current Station
Personal Weather Station
Location: Oxford, MI
Elevation: 1020 ft
Nearby Weather Stations

Elev 1020 ft 42.80 °N, 83.25 °W | Updated 56 seconds ago

Snow
Snow
32.2 °F
Feels Like 32 °F
N
0.0
Wind Variable Wind from WSW
Gusts 0.0 mph

Today
High -- | Low -- °F
--% Chance of Precip.
Yesterday
High -- | Low -- °F
Precip. -- in
Pressure 30.32 in
Visibility 2.0 miles
Clouds Mostly Cloudy 1700 ft
Overcast 3500 ft
Windchill 32 °F
Dew Point 25 °F
Humidity 74%
Rainfall 0.00 in
Snow Depth Not available.
7:43 AM 5:50 PM
Waning Crescent, 8% visible
METAR KPTK 060053Z 27007KT 2SM -SN BR BKN017 OVC035 M01/M02 A3027 RMK AO2 SLP265 P0000 T10061022
Pressure 30.32 in
Visibility 2.0 miles
Clouds Mostly Cloudy 1700 ft
Overcast 3500 ft
Windchill 32 °F
Dew Point 25 °F
Humidity 74%
Rainfall 0.00 in
Snow Depth Not available.
7:43 AM 5:50 PM
Waning Crescent, 8% visible
METAR KPTK 060053Z 27007KT 2SM -SN BR BKN017 OVC035 M01/M02 A3027 RMK AO2 SLP265 P0000 T10061022

10-Day Weather Forecast

Almanac

Astronomy

Feb. 05, 2016 Rise Set
Actual Time
Civil Twilight
Nautical Twilight
Astronomical Twilight
Moon
Length of Visible Light
Length of Day
Tomorrow will be .
, % of the Moon is Illuminated

Today's Extremes

State Highs State Lows

Community

WunderPhotos

Upload Photos

1,890,904 photos uploaded!

WunderBlog® & News

Nearby

Air Quality

  Air Quality AQ Index Pollutant
Not available.

Snow Depth

Station Depth Elevation

Earthquake Activity

City Distance Mag. Time & Date
Minimum magnitude displayed is 2.5.

Coastal Water Temperatures

Place Temperature

Stations

Nearby Weather Stations

Station Location Temp. Windchill Dew Point Humidity Wind Precip. Elev Updated Type
                   

Watches & Warnings

There are currently no watches in effect.